Prostejov, Czech Republic
Current Conditions -  °F | °C
As of 3:30 AM on Wednesday 22 Oct 2014 (Local Time) from LKTB Reporting Station
Few Clouds Few Clouds  
Wind Chill: 52°   Ceiling: Unl
Heat Index: 52°   Visibility: 6mi
Dew Point: 45°   Wind: 22mph
Humidity: 76%   Direction: 280°W
Pressure: 29.62"   Gusts: NA
Location:  49.48°N, 17.12°E
Report Text: LKTB 220130Z 28019KT 9999 FEW027 11/07 Q1003 NOSIG
Loading
Personal Weather Stations






























Interactive Weather Map
Tropical Storm Tracking
New forecast layout! Learn more

10-Day Weather Forecast

Advertisements
Track Severe Weather on mobile